sensor_id;sensor_type;location;lat;lon;timestamp;pressure;altitude;pressure_sealevel;temperature;humidity
30021;BME280;16861;52.294;7.760;2023-07-08T00:00:54;100177.72;;;22.24;40.66
30021;BME280;16861;52.294;7.760;2023-07-08T00:03:21;100171.28;;;22.17;40.84
30021;BME280;16861;52.294;7.760;2023-07-08T00:05:50;100167.38;;;22.11;41.23
30021;BME280;16861;52.294;7.760;2023-07-08T00:08:20;100171.66;;;22.04;40.93
30021;BME280;16861;52.294;7.760;2023-07-08T00:10:48;100173.81;;;22.00;40.84
30021;BME280;16861;52.294;7.760;2023-07-08T00:13:14;100171.75;;;21.94;41.14
30021;BME280;16861;52.294;7.760;2023-07-08T00:15:41;100173.03;;;21.90;41.09
30021;BME280;16861;52.294;7.760;2023-07-08T00:18:16;100172.81;;;21.83;41.75
30021;BME280;16861;52.294;7.760;2023-07-08T00:20:45;100165.06;;;21.80;41.52
30021;BME280;16861;52.294;7.760;2023-07-08T00:23:13;100170.72;;;21.77;41.39
30021;BME280;16861;52.294;7.760;2023-07-08T00:25:40;100167.63;;;21.71;41.53
30021;BME280;16861;52.294;7.760;2023-07-08T00:28:17;100169.06;;;21.66;42.09
30021;BME280;16861;52.294;7.760;2023-07-08T00:30:43;100157.81;;;21.62;41.75
30021;BME280;16861;52.294;7.760;2023-07-08T00:33:10;100153.75;;;21.58;41.78
30021;BME280;16861;52.294;7.760;2023-07-08T00:35:39;100161.38;;;21.53;42.07
30021;BME280;16861;52.294;7.760;2023-07-08T00:38:24;100155.78;;;21.46;42.38
30021;BME280;16861;52.294;7.760;2023-07-08T00:41:00;100158.31;;;21.47;42.09
30021;BME280;16861;52.294;7.760;2023-07-08T00:43:37;100159.91;;;21.40;42.56
30021;BME280;16861;52.294;7.760;2023-07-08T00:49:21;100158.13;;;21.31;41.92
30021;BME280;16861;52.294;7.760;2023-07-08T00:51:49;100150.91;;;21.31;42.32
30021;BME280;16861;52.294;7.760;2023-07-08T00:54:17;100159.25;;;21.28;42.30
30021;BME280;16861;52.294;7.760;2023-07-08T00:56:49;100161.38;;;21.25;43.15
30021;BME280;16861;52.294;7.760;2023-07-08T00:59:20;100154.63;;;21.20;43.13
30021;BME280;16861;52.294;7.760;2023-07-08T01:01:49;100151.25;;;21.18;42.85
30021;BME280;16861;52.294;7.760;2023-07-08T01:04:28;100150.00;;;21.13;42.97
30021;BME280;16861;52.294;7.760;2023-07-08T01:06:56;100145.66;;;21.12;42.99
30021;BME280;16861;52.294;7.760;2023-07-08T01:09:28;100139.91;;;21.06;43.47
30021;BME280;16861;52.294;7.760;2023-07-08T01:11:57;100135.97;;;21.01;43.28
30021;BME280;16861;52.294;7.760;2023-07-08T01:14:26;100138.09;;;20.97;43.32
30021;BME280;16861;52.294;7.760;2023-07-08T01:16:55;100138.53;;;20.92;43.34
30021;BME280;16861;52.294;7.760;2023-07-08T01:19:21;100137.13;;;20.88;43.24
30021;BME280;16861;52.294;7.760;2023-07-08T01:22:00;100133.19;;;20.82;43.65
30021;BME280;16861;52.294;7.760;2023-07-08T01:24:28;100135.31;;;20.79;43.40
30021;BME280;16861;52.294;7.760;2023-07-08T01:26:56;100123.22;;;20.75;43.42
30021;BME280;16861;52.294;7.760;2023-07-08T01:29:23;100127.84;;;20.73;43.74
30021;BME280;16861;52.294;7.760;2023-07-08T01:31:50;100114.94;;;20.68;43.76
30021;BME280;16861;52.294;7.760;2023-07-08T01:34:17;100115.22;;;20.65;43.76
30021;BME280;16861;52.294;7.760;2023-07-08T01:36:54;100119.44;;;20.57;44.22
30021;BME280;16861;52.294;7.760;2023-07-08T01:39:24;100115.94;;;20.57;44.46
30021;BME280;16861;52.294;7.760;2023-07-08T01:41:50;100116.22;;;20.54;44.06
30021;BME280;16861;52.294;7.760;2023-07-08T01:44:23;100109.47;;;20.50;44.40
30021;BME280;16861;52.294;7.760;2023-07-08T01:46:51;100110.47;;;20.49;44.08
30021;BME280;16861;52.294;7.760;2023-07-08T01:49:20;100108.91;;;20.46;43.99
30021;BME280;16861;52.294;7.760;2023-07-08T01:51:48;100114.53;;;20.43;44.46
30021;BME280;16861;52.294;7.760;2023-07-08T01:54:15;100105.97;;;20.39;43.75
30021;BME280;16861;52.294;7.760;2023-07-08T01:56:41;100105.25;;;20.37;44.21
30021;BME280;16861;52.294;7.760;2023-07-08T01:59:08;100103.72;;;20.35;44.84
30021;BME280;16861;52.294;7.760;2023-07-08T02:01:34;100099.50;;;20.32;44.42
30021;BME280;16861;52.294;7.760;2023-07-08T02:04:01;100094.28;;;20.30;44.40
30021;BME280;16861;52.294;7.760;2023-07-08T02:06:27;100093.63;;;20.28;44.76
30021;BME280;16861;52.294;7.760;2023-07-08T02:08:53;100098.25;;;20.26;44.67
30021;BME280;16861;52.294;7.760;2023-07-08T02:11:21;100090.53;;;20.23;44.62
30021;BME280;16861;52.294;7.760;2023-07-08T02:13:47;100088.97;;;20.21;44.94
30021;BME280;16861;52.294;7.760;2023-07-08T02:16:14;100088.28;;;20.18;45.05
30021;BME280;16861;52.294;7.760;2023-07-08T02:18:40;100083.19;;;20.15;44.76
30021;BME280;16861;52.294;7.760;2023-07-08T02:21:06;100077.31;;;20.12;44.74
30021;BME280;16861;52.294;7.760;2023-07-08T02:23:33;100067.88;;;20.08;45.31
30021;BME280;16861;52.294;7.760;2023-07-08T02:25:59;100075.34;;;20.04;45.56
30021;BME280;16861;52.294;7.760;2023-07-08T02:28:26;100075.50;;;20.02;45.37
30021;BME280;16861;52.294;7.760;2023-07-08T02:30:52;100074.78;;;20.00;45.71
30021;BME280;16861;52.294;7.760;2023-07-08T02:33:18;100072.50;;;19.96;45.66
30021;BME280;16861;52.294;7.760;2023-07-08T02:35:45;100072.66;;;19.94;45.60
30021;BME280;16861;52.294;7.760;2023-07-08T02:38:12;100071.09;;;19.91;45.81
30021;BME280;16861;52.294;7.760;2023-07-08T02:40:39;100067.72;;;19.89;45.91
30021;BME280;16861;52.294;7.760;2023-07-08T02:43:05;100065.34;;;19.86;45.76
30021;BME280;16861;52.294;7.760;2023-07-08T02:45:32;100053.81;;;19.86;45.95
30021;BME280;16861;52.294;7.760;2023-07-08T02:47:58;100055.78;;;19.84;46.13
30021;BME280;16861;52.294;7.760;2023-07-08T02:50:25;100058.72;;;19.81;45.82
30021;BME280;16861;52.294;7.760;2023-07-08T02:52:51;100065.06;;;19.79;45.94
30021;BME280;16861;52.294;7.760;2023-07-08T02:55:17;100063.50;;;19.77;46.16
30021;BME280;16861;52.294;7.760;2023-07-08T02:57:44;100062.13;;;19.73;45.95
30021;BME280;16861;52.294;7.760;2023-07-08T03:00:11;100072.06;;;19.71;46.66
30021;BME280;16861;52.294;7.760;2023-07-08T03:02:38;100067.00;;;19.67;46.59
30021;BME280;16861;52.294;7.760;2023-07-08T03:05:04;100065.47;;;19.65;46.55
30021;BME280;16861;52.294;7.760;2023-07-08T03:07:31;100065.75;;;19.62;46.94
30021;BME280;16861;52.294;7.760;2023-07-08T03:09:57;100066.84;;;19.59;46.76
30021;BME280;16861;52.294;7.760;2023-07-08T03:12:24;100069.69;;;19.58;46.82
30021;BME280;16861;52.294;7.760;2023-07-08T03:14:50;100065.44;;;19.55;46.72
30021;BME280;16861;52.294;7.760;2023-07-08T03:17:17;100063.75;;;19.54;46.91
30021;BME280;16861;52.294;7.760;2023-07-08T03:19:45;100055.88;;;19.52;46.83
30021;BME280;16861;52.294;7.760;2023-07-08T03:22:11;100055.19;;;19.50;47.02
30021;BME280;16861;52.294;7.760;2023-07-08T03:24:38;100050.97;;;19.48;47.15
30021;BME280;16861;52.294;7.760;2023-07-08T03:27:15;100051.13;;;19.46;47.36
30021;BME280;16861;52.294;7.760;2023-07-08T03:29:42;100058.25;;;19.46;47.17
30021;BME280;16861;52.294;7.760;2023-07-08T03:32:11;100060.25;;;19.44;47.32
30021;BME280;16861;52.294;7.760;2023-07-08T03:34:38;100057.56;;;19.44;47.19
30021;BME280;16861;52.294;7.760;2023-07-08T03:37:05;100056.03;;;19.41;47.37
30021;BME280;16861;52.294;7.760;2023-07-08T03:39:32;100060.50;;;19.40;47.40
30021;BME280;16861;52.294;7.760;2023-07-08T03:41:58;100064.16;;;19.39;47.58
30021;BME280;16861;52.294;7.760;2023-07-08T03:44:25;100057.97;;;19.39;47.66
30021;BME280;16861;52.294;7.760;2023-07-08T03:46:52;100062.50;;;19.38;47.38
30021;BME280;16861;52.294;7.760;2023-07-08T03:49:20;100053.75;;;19.36;47.62
30021;BME280;16861;52.294;7.760;2023-07-08T03:51:50;100063.59;;;19.36;47.57
30021;BME280;16861;52.294;7.760;2023-07-08T03:54:18;100056.56;;;19.35;47.61
30021;BME280;16861;52.294;7.760;2023-07-08T03:56:44;100058.28;;;19.36;47.86
30021;BME280;16861;52.294;7.760;2023-07-08T03:59:11;100057.41;;;19.35;47.55
30021;BME280;16861;52.294;7.760;2023-07-08T04:01:37;100060.09;;;19.35;47.73
30021;BME280;16861;52.294;7.760;2023-07-08T04:04:11;100055.72;;;19.34;48.04
30021;BME280;16861;52.294;7.760;2023-07-08T04:06:38;100061.75;;;19.36;48.00
30021;BME280;16861;52.294;7.760;2023-07-08T04:09:04;100059.09;;;19.36;47.73
30021;BME280;16861;52.294;7.760;2023-07-08T04:11:31;100060.78;;;19.37;47.93
30021;BME280;16861;52.294;7.760;2023-07-08T04:13:57;100054.47;;;19.38;47.90
30021;BME280;16861;52.294;7.760;2023-07-08T04:16:29;100052.78;;;19.37;48.43
30021;BME280;16861;52.294;7.760;2023-07-08T04:18:56;100062.19;;;19.42;48.15
30021;BME280;16861;52.294;7.760;2023-07-08T04:21:24;100058.41;;;19.44;48.32
30021;BME280;16861;52.294;7.760;2023-07-08T04:23:53;100062.66;;;19.47;48.04
30021;BME280;16861;52.294;7.760;2023-07-08T04:26:20;100065.00;;;19.50;48.13
30021;BME280;16861;52.294;7.760;2023-07-08T04:28:47;100063.91;;;19.52;48.17
30021;BME280;16861;52.294;7.760;2023-07-08T04:31:13;100061.09;;;19.54;48.58
30021;BME280;16861;52.294;7.760;2023-07-08T04:33:40;100072.50;;;19.56;48.53
30021;BME280;16861;52.294;7.760;2023-07-08T04:36:14;100070.78;;;19.55;48.83
30021;BME280;16861;52.294;7.760;2023-07-08T04:38:40;100077.53;;;19.59;48.41
30021;BME280;16861;52.294;7.760;2023-07-08T04:41:08;100070.25;;;19.61;48.75
30021;BME280;16861;52.294;7.760;2023-07-08T04:43:34;100077.25;;;19.62;48.60
30021;BME280;16861;52.294;7.760;2023-07-08T04:46:00;100077.00;;;19.65;48.91
30021;BME280;16861;52.294;7.760;2023-07-08T04:48:27;100076.00;;;19.66;48.67
30021;BME280;16861;52.294;7.760;2023-07-08T04:50:54;100081.06;;;19.70;48.71
30021;BME280;16861;52.294;7.760;2023-07-08T04:53:20;100080.81;;;19.73;48.74
30021;BME280;16861;52.294;7.760;2023-07-08T04:55:51;100082.34;;;19.75;49.37
30021;BME280;16861;52.294;7.760;2023-07-08T04:58:19;100071.22;;;19.80;48.69
30021;BME280;16861;52.294;7.760;2023-07-08T05:00:46;100075.31;;;19.84;48.80
30021;BME280;16861;52.294;7.760;2023-07-08T05:03:13;100068.72;;;19.88;48.73
30021;BME280;16861;52.294;7.760;2023-07-08T05:05:40;100076.31;;;19.93;48.85
30021;BME280;16861;52.294;7.760;2023-07-08T05:08:07;100077.72;;;19.97;48.80
30021;BME280;16861;52.294;7.760;2023-07-08T05:10:34;100077.31;;;20.02;48.82
30021;BME280;16861;52.294;7.760;2023-07-08T05:13:01;100080.41;;;20.07;48.51
30021;BME280;16861;52.294;7.760;2023-07-08T05:15:27;100079.13;;;20.11;48.79
30021;BME280;16861;52.294;7.760;2023-07-08T05:17:53;100078.56;;;20.17;48.64
30021;BME280;16861;52.294;7.760;2023-07-08T05:20:20;100079.97;;;20.22;48.40
30021;BME280;16861;52.294;7.760;2023-07-08T05:22:47;100084.88;;;20.26;48.64
30021;BME280;16861;52.294;7.760;2023-07-08T05:25:13;100079.94;;;20.31;48.62
30021;BME280;16861;52.294;7.760;2023-07-08T05:27:40;100079.53;;;20.36;48.80
30021;BME280;16861;52.294;7.760;2023-07-08T05:30:08;100081.78;;;20.41;48.79
30021;BME280;16861;52.294;7.760;2023-07-08T05:32:35;100083.00;;;20.47;48.53
30021;BME280;16861;52.294;7.760;2023-07-08T05:35:01;100079.78;;;20.53;48.29
30021;BME280;16861;52.294;7.760;2023-07-08T05:37:28;100074.81;;;20.58;48.24
30021;BME280;16861;52.294;7.760;2023-07-08T05:39:55;100079.59;;;20.64;48.57
30021;BME280;16861;52.294;7.760;2023-07-08T05:42:22;100074.53;;;20.71;48.59
30021;BME280;16861;52.294;7.760;2023-07-08T05:44:49;100070.25;;;20.78;48.28
30021;BME280;16861;52.294;7.760;2023-07-08T05:47:18;100060.81;;;20.84;48.65
30021;BME280;16861;52.294;7.760;2023-07-08T05:49:44;100061.94;;;20.91;48.49
30021;BME280;16861;52.294;7.760;2023-07-08T05:52:11;100073.56;;;21.00;48.38
30021;BME280;16861;52.294;7.760;2023-07-08T05:54:38;100071.16;;;21.07;48.43
30021;BME280;16861;52.294;7.760;2023-07-08T05:57:09;100072.09;;;21.16;48.28
30021;BME280;16861;52.294;7.760;2023-07-08T05:59:37;100058.81;;;21.24;48.36
30021;BME280;16861;52.294;7.760;2023-07-08T06:02:06;100060.59;;;21.33;48.13
30021;BME280;16861;52.294;7.760;2023-07-08T06:04:32;100063.34;;;21.42;48.06
30021;BME280;16861;52.294;7.760;2023-07-08T06:06:59;100062.28;;;21.53;48.17
30021;BME280;16861;52.294;7.760;2023-07-08T06:09:25;100057.03;;;21.61;47.90
30021;BME280;16861;52.294;7.760;2023-07-08T06:11:51;100056.81;;;21.72;47.91
30021;BME280;16861;52.294;7.760;2023-07-08T06:14:18;100060.94;;;21.85;47.66
30021;BME280;16861;52.294;7.760;2023-07-08T06:16:44;100054.34;;;21.97;47.62
30021;BME280;16861;52.294;7.760;2023-07-08T06:19:13;100058.16;;;22.13;47.46
30021;BME280;16861;52.294;7.760;2023-07-08T06:21:41;100056.88;;;22.25;47.27
30021;BME280;16861;52.294;7.760;2023-07-08T06:24:07;100057.34;;;22.39;47.17
30021;BME280;16861;52.294;7.760;2023-07-08T06:26:34;100059.59;;;22.52;47.03
30021;BME280;16861;52.294;7.760;2023-07-08T06:29:01;100053.16;;;22.63;46.40
30021;BME280;16861;52.294;7.760;2023-07-08T06:31:28;100054.19;;;22.70;46.24
30021;BME280;16861;52.294;7.760;2023-07-08T06:33:55;100057.91;;;22.77;45.86
30021;BME280;16861;52.294;7.760;2023-07-08T06:36:21;100049.53;;;22.81;46.04
30021;BME280;16861;52.294;7.760;2023-07-08T06:38:49;100049.22;;;22.84;45.82
30021;BME280;16861;52.294;7.760;2023-07-08T06:41:15;100046.19;;;22.87;45.53
30021;BME280;16861;52.294;7.760;2023-07-08T06:43:41;100052.25;;;22.89;45.64
30021;BME280;16861;52.294;7.760;2023-07-08T06:46:08;100048.56;;;22.90;45.82
30021;BME280;16861;52.294;7.760;2023-07-08T06:48:34;100052.78;;;22.93;46.00
30021;BME280;16861;52.294;7.760;2023-07-08T06:51:01;100044.41;;;22.96;46.32
30021;BME280;16861;52.294;7.760;2023-07-08T06:53:28;100053.81;;;23.00;46.58
30021;BME280;16861;52.294;7.760;2023-07-08T06:55:54;100055.69;;;23.08;46.47
30021;BME280;16861;52.294;7.760;2023-07-08T06:58:20;100056.72;;;23.15;46.24
30021;BME280;16861;52.294;7.760;2023-07-08T07:00:47;100052.19;;;23.24;46.16
30021;BME280;16861;52.294;7.760;2023-07-08T07:03:13;100045.88;;;23.33;46.36
30021;BME280;16861;52.294;7.760;2023-07-08T07:05:40;100051.28;;;23.41;46.01
30021;BME280;16861;52.294;7.760;2023-07-08T07:08:06;100048.59;;;23.50;46.62
30021;BME280;16861;52.294;7.760;2023-07-08T07:10:34;100048.63;;;23.58;46.36
30021;BME280;16861;52.294;7.760;2023-07-08T07:13:02;100049.66;;;23.65;45.86
30021;BME280;16861;52.294;7.760;2023-07-08T07:15:29;100046.97;;;23.74;45.95
30021;BME280;16861;52.294;7.760;2023-07-08T07:17:57;100039.72;;;23.82;46.04
30021;BME280;16861;52.294;7.760;2023-07-08T07:20:24;100054.69;;;23.93;46.15
30021;BME280;16861;52.294;7.760;2023-07-08T07:22:51;100046.63;;;24.02;45.96
30021;BME280;16861;52.294;7.760;2023-07-08T07:25:18;100051.69;;;24.13;46.13
30021;BME280;16861;52.294;7.760;2023-07-08T07:27:45;100056.91;;;24.23;45.97
30021;BME280;16861;52.294;7.760;2023-07-08T07:30:12;100060.25;;;24.33;45.60
30021;BME280;16861;52.294;7.760;2023-07-08T07:32:42;100066.09;;;24.45;45.52
30021;BME280;16861;52.294;7.760;2023-07-08T07:35:11;100060.53;;;24.55;45.13
30021;BME280;16861;52.294;7.760;2023-07-08T07:37:42;100060.19;;;24.67;44.84
30021;BME280;16861;52.294;7.760;2023-07-08T07:40:10;100054.56;;;24.77;45.00
30021;BME280;16861;52.294;7.760;2023-07-08T07:42:39;100058.75;;;24.88;44.52
30021;BME280;16861;52.294;7.760;2023-07-08T07:45:06;100052.34;;;24.97;44.58
30021;BME280;16861;52.294;7.760;2023-07-08T07:47:34;100057.50;;;25.07;44.51
30021;BME280;16861;52.294;7.760;2023-07-08T07:50:05;100060.66;;;25.19;44.43
30021;BME280;16861;52.294;7.760;2023-07-08T07:52:32;100054.88;;;25.30;44.67
30021;BME280;16861;52.294;7.760;2023-07-08T07:54:59;100051.78;;;25.42;44.48
30021;BME280;16861;52.294;7.760;2023-07-08T07:57:25;100054.03;;;25.53;44.10
30021;BME280;16861;52.294;7.760;2023-07-08T07:59:52;100044.56;;;25.66;44.20
30021;BME280;16861;52.294;7.760;2023-07-08T08:02:19;100055.56;;;25.79;44.26
30021;BME280;16861;52.294;7.760;2023-07-08T08:04:46;100047.06;;;25.91;43.19
30021;BME280;16861;52.294;7.760;2023-07-08T08:07:13;100041.25;;;26.02;43.41
30021;BME280;16861;52.294;7.760;2023-07-08T08:09:39;100043.50;;;26.13;43.23
30021;BME280;16861;52.294;7.760;2023-07-08T08:12:08;100049.47;;;26.24;43.11
30021;BME280;16861;52.294;7.760;2023-07-08T08:14:35;100045.53;;;26.35;42.71
30021;BME280;16861;52.294;7.760;2023-07-08T08:17:03;100049.63;;;26.46;42.66
30021;BME280;16861;52.294;7.760;2023-07-08T08:19:29;100051.22;;;26.55;42.26
30021;BME280;16861;52.294;7.760;2023-07-08T08:21:59;100051.75;;;26.65;42.21
30021;BME280;16861;52.294;7.760;2023-07-08T08:24:25;100055.22;;;26.74;42.24
30021;BME280;16861;52.294;7.760;2023-07-08T08:26:53;100059.31;;;26.85;42.09
30021;BME280;16861;52.294;7.760;2023-07-08T08:29:21;100056.13;;;26.97;42.33
30021;BME280;16861;52.294;7.760;2023-07-08T08:31:48;100052.97;;;27.08;41.94
30021;BME280;16861;52.294;7.760;2023-07-08T08:34:17;100054.16;;;27.21;41.75
30021;BME280;16861;52.294;7.760;2023-07-08T08:36:43;100056.34;;;27.32;42.04
30021;BME280;16861;52.294;7.760;2023-07-08T08:39:10;100052.28;;;27.43;41.48
30021;BME280;16861;52.294;7.760;2023-07-08T08:41:38;100059.06;;;27.54;41.47
30021;BME280;16861;52.294;7.760;2023-07-08T08:44:11;100058.59;;;27.65;40.90
30021;BME280;16861;52.294;7.760;2023-07-08T08:46:46;100058.91;;;27.77;41.13
30021;BME280;16861;52.294;7.760;2023-07-08T08:49:25;100060.25;;;27.88;41.72
30021;BME280;16861;52.294;7.760;2023-07-08T08:51:53;100059.34;;;28.03;40.84
30021;BME280;16861;52.294;7.760;2023-07-08T08:54:20;100053.19;;;28.16;40.76
30021;BME280;16861;52.294;7.760;2023-07-08T08:57:00;100060.31;;;28.23;39.92
30021;BME280;16861;52.294;7.760;2023-07-08T08:59:45;100056.06;;;28.36;39.56
30021;BME280;16861;52.294;7.760;2023-07-08T09:04:58;100059.97;;;28.62;39.08
30021;BME280;16861;52.294;7.760;2023-07-08T09:07:27;100054.41;;;28.70;40.22
30021;BME280;16861;52.294;7.760;2023-07-08T09:10:31;100057.16;;;28.84;39.99
30021;BME280;16861;52.294;7.760;2023-07-08T09:13:04;100057.72;;;29.01;38.53
30021;BME280;16861;52.294;7.760;2023-07-08T09:15:32;100047.50;;;29.10;39.24
30021;BME280;16861;52.294;7.760;2023-07-08T09:18:13;100050.44;;;29.15;38.42
30021;BME280;16861;52.294;7.760;2023-07-08T09:20:41;100050.28;;;29.30;38.46
30021;BME280;16861;52.294;7.760;2023-07-08T09:25:46;100057.47;;;29.51;39.06
30021;BME280;16861;52.294;7.760;2023-07-08T09:28:15;100057.28;;;29.60;39.76
30021;BME280;16861;52.294;7.760;2023-07-08T09:30:47;100050.41;;;29.77;37.96
30021;BME280;16861;52.294;7.760;2023-07-08T09:33:14;100055.38;;;29.87;38.57
30021;BME280;16861;52.294;7.760;2023-07-08T09:35:44;100055.19;;;29.96;38.31
30021;BME280;16861;52.294;7.760;2023-07-08T09:38:16;100055.81;;;30.04;37.61
30021;BME280;16861;52.294;7.760;2023-07-08T09:40:48;100050.81;;;30.15;37.59
30021;BME280;16861;52.294;7.760;2023-07-08T09:45:45;100052.69;;;30.35;36.80
30021;BME280;16861;52.294;7.760;2023-07-08T09:48:18;100050.78;;;30.42;37.22
30021;BME280;16861;52.294;7.760;2023-07-08T09:50:52;100054.13;;;30.51;36.44
30021;BME280;16861;52.294;7.760;2023-07-08T09:53:19;100050.97;;;30.61;37.86
30021;BME280;16861;52.294;7.760;2023-07-08T09:55:46;100053.44;;;30.69;36.70
30021;BME280;16861;52.294;7.760;2023-07-08T09:58:15;100053.25;;;30.77;36.97
30021;BME280;16861;52.294;7.760;2023-07-08T10:00:45;100054.03;;;30.85;37.60
30021;BME280;16861;52.294;7.760;2023-07-08T10:03:22;100057.34;;;31.00;36.31
30021;BME280;16861;52.294;7.760;2023-07-08T10:05:49;100056.88;;;31.10;36.11
30021;BME280;16861;52.294;7.760;2023-07-08T10:08:22;100058.72;;;31.16;36.06
30021;BME280;16861;52.294;7.760;2023-07-08T10:11:02;100057.00;;;31.22;36.11
30021;BME280;16861;52.294;7.760;2023-07-08T10:13:41;100055.06;;;31.29;35.97
30021;BME280;16861;52.294;7.760;2023-07-08T10:16:26;100057.13;;;31.41;36.92
30021;BME280;16861;52.294;7.760;2023-07-08T10:18:54;100057.91;;;31.55;36.83
30021;BME280;16861;52.294;7.760;2023-07-08T10:27:12;100054.31;;;31.87;35.92
30021;BME280;16861;52.294;7.760;2023-07-08T10:35:33;100050.63;;;32.25;35.98
30021;BME280;16861;52.294;7.760;2023-07-08T10:38:18;100055.97;;;32.39;34.73
30021;BME280;16861;52.294;7.760;2023-07-08T10:43:28;100052.75;;;32.67;35.87
30021;BME280;16861;52.294;7.760;2023-07-08T10:57:09;100049.94;;;34.21;34.31
30021;BME280;16861;52.294;7.760;2023-07-08T10:59:54;100041.81;;;34.74;33.17
30021;BME280;16861;52.294;7.760;2023-07-08T11:02:40;100041.84;;;35.32;31.33
30021;BME280;16861;52.294;7.760;2023-07-08T11:05:56;100042.81;;;35.89;31.44
30021;BME280;16861;52.294;7.760;2023-07-08T11:11:01;100035.13;;;36.87;29.21
30021;BME280;16861;52.294;7.760;2023-07-08T11:13:34;100032.56;;;37.31;28.60
30021;BME280;16861;52.294;7.760;2023-07-08T11:16:10;100029.94;;;37.74;27.45
30021;BME280;16861;52.294;7.760;2023-07-08T11:18:57;100032.97;;;38.15;26.91
30021;BME280;16861;52.294;7.760;2023-07-08T11:21:30;100013.63;;;38.53;26.08
30021;BME280;16861;52.294;7.760;2023-07-08T11:26:50;100016.63;;;39.21;26.41
30021;BME280;16861;52.294;7.760;2023-07-08T11:29:24;99999.28;;;39.52;26.14
30021;BME280;16861;52.294;7.760;2023-07-08T11:31:54;100010.25;;;39.83;25.38
30021;BME280;16861;52.294;7.760;2023-07-08T11:34:22;99997.84;;;40.06;24.80
30021;BME280;16861;52.294;7.760;2023-07-08T11:36:50;100004.66;;;40.30;26.06
30021;BME280;16861;52.294;7.760;2023-07-08T11:39:32;99994.41;;;40.51;25.48
30021;BME280;16861;52.294;7.760;2023-07-08T11:42:18;100000.88;;;40.76;24.62
30021;BME280;16861;52.294;7.760;2023-07-08T11:44:54;99995.50;;;41.00;24.59
30021;BME280;16861;52.294;7.760;2023-07-08T11:47:26;100000.06;;;41.21;22.53
30021;BME280;16861;52.294;7.760;2023-07-08T11:50:12;99993.28;;;41.42;21.94
30021;BME280;16861;52.294;7.760;2023-07-08T11:52:52;99997.53;;;41.59;22.13
30021;BME280;16861;52.294;7.760;2023-07-08T11:55:23;99994.59;;;41.80;20.99
30021;BME280;16861;52.294;7.760;2023-07-08T11:57:59;99993.59;;;41.95;21.31
30021;BME280;16861;52.294;7.760;2023-07-08T12:00:30;99991.19;;;42.13;21.86
30021;BME280;16861;52.294;7.760;2023-07-08T12:03:12;99999.84;;;42.30;20.69
30021;BME280;16861;52.294;7.760;2023-07-08T12:05:46;99998.75;;;42.51;19.88
30021;BME280;16861;52.294;7.760;2023-07-08T12:08:15;99994.69;;;42.67;19.78
30021;BME280;16861;52.294;7.760;2023-07-08T12:10:50;99990.06;;;42.82;20.22
30021;BME280;16861;52.294;7.760;2023-07-08T12:13:23;99979.56;;;42.98;19.82
30021;BME280;16861;52.294;7.760;2023-07-08T12:15:50;99988.38;;;43.19;19.38
30021;BME280;16861;52.294;7.760;2023-07-08T12:18:27;99981.56;;;43.31;18.10
30021;BME280;16861;52.294;7.760;2023-07-08T12:20:58;99981.28;;;43.46;18.55
30021;BME280;16861;52.294;7.760;2023-07-08T12:23:28;99977.72;;;43.60;18.54
30021;BME280;16861;52.294;7.760;2023-07-08T12:25:57;99984.44;;;43.73;19.15
30021;BME280;16861;52.294;7.760;2023-07-08T12:28:24;99976.16;;;43.87;20.22
30021;BME280;16861;52.294;7.760;2023-07-08T12:30:51;99970.28;;;44.03;18.56
30021;BME280;16861;52.294;7.760;2023-07-08T12:33:26;99966.66;;;44.16;18.01
30021;BME280;16861;52.294;7.760;2023-07-08T12:35:55;99968.31;;;44.31;17.31
30021;BME280;16861;52.294;7.760;2023-07-08T12:38:29;99965.13;;;44.38;17.57
30021;BME280;16861;52.294;7.760;2023-07-08T12:40:59;99961.13;;;44.44;16.53
30021;BME280;16861;52.294;7.760;2023-07-08T12:43:27;99958.84;;;44.46;17.62
30021;BME280;16861;52.294;7.760;2023-07-08T12:45:53;99954.63;;;44.49;17.25
30021;BME280;16861;52.294;7.760;2023-07-08T12:48:20;99958.63;;;44.57;17.83
30021;BME280;16861;52.294;7.760;2023-07-08T12:50:46;99953.66;;;44.68;18.54
30021;BME280;16861;52.294;7.760;2023-07-08T12:53:13;99959.81;;;44.78;16.66
30021;BME280;16861;52.294;7.760;2023-07-08T12:55:43;99964.78;;;44.90;17.18
30021;BME280;16861;52.294;7.760;2023-07-08T12:58:25;99956.50;;;44.99;17.12
30021;BME280;16861;52.294;7.760;2023-07-08T13:00:54;99964.81;;;45.13;16.79
30021;BME280;16861;52.294;7.760;2023-07-08T13:03:28;99955.53;;;45.18;16.79
30021;BME280;16861;52.294;7.760;2023-07-08T13:05:57;99952.47;;;45.28;16.28
30021;BME280;16861;52.294;7.760;2023-07-08T13:08:26;99947.09;;;45.32;15.37
30021;BME280;16861;52.294;7.760;2023-07-08T13:10:58;99960.19;;;45.32;15.64
30021;BME280;16861;52.294;7.760;2023-07-08T13:13:34;99961.81;;;45.33;17.38
30021;BME280;16861;52.294;7.760;2023-07-08T13:16:02;99950.25;;;45.39;15.44
30021;BME280;16861;52.294;7.760;2023-07-08T13:20:59;99954.44;;;45.60;16.34
30021;BME280;16861;52.294;7.760;2023-07-08T13:23:35;99953.81;;;45.72;16.21
30021;BME280;16861;52.294;7.760;2023-07-08T13:26:13;99954.22;;;45.88;16.12
30021;BME280;16861;52.294;7.760;2023-07-08T13:28:40;99957.41;;;46.04;15.47
30021;BME280;16861;52.294;7.760;2023-07-08T13:31:23;99954.47;;;46.09;15.60
30021;BME280;16861;52.294;7.760;2023-07-08T13:33:53;99951.88;;;46.22;15.05
30021;BME280;16861;52.294;7.760;2023-07-08T13:36:23;99960.38;;;46.25;14.81
30021;BME280;16861;52.294;7.760;2023-07-08T13:38:50;99958.63;;;46.29;14.99
30021;BME280;16861;52.294;7.760;2023-07-08T13:41:22;99960.25;;;46.30;14.72
30021;BME280;16861;52.294;7.760;2023-07-08T13:43:49;99954.03;;;46.33;15.18
30021;BME280;16861;52.294;7.760;2023-07-08T13:46:29;99960.25;;;46.30;15.49
30021;BME280;16861;52.294;7.760;2023-07-08T13:49:00;99960.09;;;46.36;15.25